Time;durP1;ratioP1;P1;durP2;ratioP2;P2;SDS_P1;SDS_P2;PMS_P1;PMS_P2;Temp;Humidity;BMP_temperature;BMP_pressure;BME280_temperature;BME280_humidity;BME280_pressure;Samples;Min_cycle;Max_cycle;Signal;HPM_P1;HPM_P2
2022/12/21 00:01:22;;;;;;;42.47;24.95;;;7.60;99.90;;;;;;5063639;28;20041;-76
2022/12/21 00:03:52;;;;;;;82.78;27.77;;;7.60;99.90;;;;;;5048709;28;20493;-76
2022/12/21 00:06:18;;;;;;;90.32;26.58;;;7.50;99.90;;;;;;5048032;28;20493;-77
2022/12/21 00:08:45;;;;;;;104.85;29.58;;;8.60;99.90;;;;;;5047795;28;20051;-76
2022/12/21 00:11:12;;;;;;;254.57;33.47;;;7.50;99.90;;;;;;5055001;28;20067;-76
2022/12/21 00:13:39;;;;;;;212.27;30.50;;;8.80;99.90;;;;;;5052804;28;20056;-77
2022/12/21 00:16:10;;;;;;;93.38;25.20;;;7.40;99.90;;;;;;5042969;28;20045;-76
2022/12/21 00:18:37;;;;;;;147.27;25.77;;;7.40;99.90;;;;;;5050223;28;20045;-76
2022/12/21 00:21:15;;;;;;;158.90;30.23;;;8.70;99.90;;;;;;5047467;28;20071;-77
2022/12/21 00:23:43;;;;;;;138.43;29.17;;;7.40;99.90;;;;;;5081360;28;20067;-77
2022/12/21 00:26:11;;;;;;;72.25;24.52;;;8.00;99.90;;;;;;5047848;28;20036;-77
2022/12/21 00:28:36;;;;;;;110.65;25.05;;;7.30;99.90;;;;;;5024768;28;20040;-77
2022/12/21 00:31:11;;;;;;;296.05;33.78;;;7.30;99.90;;;;;;5026940;28;20187;-78
2022/12/21 00:33:37;;;;;;;52.88;20.30;;;7.30;99.90;;;;;;5048244;28;20501;-78
2022/12/21 00:36:04;;;;;;;110.70;23.73;;;7.20;99.90;;;;;;5046594;28;20080;-78
2022/12/21 00:38:30;;;;;;;77.40;22.63;;;7.20;99.90;;;;;;5049192;28;20222;-77
2022/12/21 00:40:58;;;;;;;115.57;23.35;;;7.20;99.90;;;;;;5051873;28;20127;-75
2022/12/21 00:43:24;;;;;;;74.97;19.35;;;8.60;99.90;;;;;;5032633;28;20457;-76
2022/12/21 00:45:50;;;;;;;100.68;22.38;;;9.10;99.90;;;;;;5049758;28;20071;-77
2022/12/21 00:48:16;;;;;;;72.03;21.77;;;7.10;99.90;;;;;;5050238;28;20439;-77
2022/12/21 00:50:41;;;;;;;201.93;27.23;;;7.20;99.90;;;;;;5056274;28;20647;-77
2022/12/21 00:53:08;;;;;;;80.35;21.08;;;7.10;99.90;;;;;;5047657;28;20054;-79
2022/12/21 00:55:34;;;;;;;70.80;20.67;;;8.50;99.90;;;;;;5044987;28;20040;-77
2022/12/21 00:58:00;;;;;;;89.80;21.92;;;7.10;99.90;;;;;;5030529;28;20044;-77
2022/12/21 01:00:27;;;;;;;98.80;22.20;;;7.40;99.90;;;;;;5053520;28;20056;-76
2022/12/21 01:02:53;;;;;;;188.00;29.77;;;7.10;99.90;;;;;;5047970;28;20044;-76
2022/12/21 01:05:18;;;;;;;91.57;22.15;;;8.60;99.90;;;;;;5056634;28;20633;-77
2022/12/21 01:07:44;;;;;;;188.85;28.38;;;6.90;99.90;;;;;;5030398;28;20529;-77
2022/12/21 01:10:10;;;;;;;198.85;28.73;;;8.10;99.90;;;;;;5049602;28;20161;-75
2022/12/21 01:12:36;;;;;;;80.43;23.83;;;7.10;99.90;;;;;;5046702;28;20041;-75
2022/12/21 01:15:03;;;;;;;124.53;24.75;;;6.90;99.90;;;;;;5055196;28;20047;-75
2022/12/21 01:17:28;;;;;;;109.90;22.80;;;7.00;99.90;;;;;;5031627;28;20075;-76
2022/12/21 01:19:54;;;;;;;42.50;19.73;;;6.90;99.90;;;;;;5047631;28;20053;-76
2022/12/21 01:22:20;;;;;;;49.60;19.48;;;7.00;99.90;;;;;;5050224;28;20041;-76
2022/12/21 01:24:46;;;;;;;40.17;19.30;;;6.90;99.90;;;;;;5031408;28;20083;-76
2022/12/21 01:27:12;;;;;;;48.75;19.23;;;6.90;99.90;;;;;;5033929;28;20098;-76
2022/12/21 01:29:38;;;;;;;41.05;18.08;;;6.90;99.90;;;;;;5047832;28;20049;-75
2022/12/21 01:32:04;;;;;;;69.47;21.00;;;6.90;99.90;;;;;;5055043;28;20037;-75
2022/12/21 01:34:30;;;;;;;70.18;19.70;;;6.90;99.90;;;;;;5057147;28;20040;-77
2022/12/21 01:36:56;;;;;;;33.78;18.45;;;7.50;99.90;;;;;;5038141;28;20037;-75
2022/12/21 01:39:21;;;;;;;40.65;18.58;;;6.90;99.90;;;;;;5057740;28;20560;-75
2022/12/21 01:41:47;;;;;;;57.58;19.60;;;6.90;99.90;;;;;;5052733;28;21403;-76
2022/12/21 01:45:02;;;;;;;68.57;19.70;;;6.90;99.90;;;;;;5049972;28;20045;-75
2022/12/21 01:47:36;;;;;;;65.10;18.88;;;6.80;99.90;;;;;;5029585;28;20053;-76
2022/12/21 01:50:14;;;;;;;76.10;18.15;;;8.00;99.90;;;;;;5056487;28;20068;-76
2022/12/21 01:52:40;;;;;;;59.28;16.35;;;6.80;99.90;;;;;;5056783;28;20048;-75
2022/12/21 01:55:06;;;;;;;66.45;18.45;;;7.20;99.90;;;;;;5053930;28;20094;-75
2022/12/21 01:57:33;;;;;;;56.40;17.27;;;6.70;99.90;;;;;;5055590;28;20068;-76
2022/12/21 02:00:01;;;;;;;34.33;15.70;;;6.70;99.90;;;;;;5059004;28;20114;-76
2022/12/21 02:02:36;;;;;;;40.58;16.65;;;6.70;99.90;;;;;;5034055;28;20567;-76
2022/12/21 02:05:18;;;;;;;41.67;14.82;;;6.80;99.90;;;;;;5050741;28;20625;-77
2022/12/21 02:07:44;;;;;;;49.80;16.60;;;6.70;99.90;;;;;;5033250;28;20041;-76
2022/12/21 02:10:10;;;;;;;82.57;19.45;;;6.70;99.90;;;;;;5050637;28;20489;-76
2022/12/21 02:12:37;;;;;;;48.03;16.40;;;6.60;99.90;;;;;;5044326;28;20389;-76
2022/12/21 02:15:03;;;;;;;35.92;15.13;;;6.60;99.90;;;;;;5049586;28;20045;-75
2022/12/21 02:17:47;;;;;;;102.25;20.00;;;6.60;99.90;;;;;;5051489;28;20040;-76
2022/12/21 02:20:58;;;;;;;73.85;14.52;;;6.60;99.90;;;;;;5051066;28;20040;-78
2022/12/21 02:24:03;;;;;;;50.78;15.32;;;6.60;99.90;;;;;;5032138;28;20044;-77
2022/12/21 02:27:03;;;;;;;43.08;13.35;;;6.60;99.90;;;;;;5050001;28;20041;-75
2022/12/21 02:29:47;;;;;;;26.85;12.45;;;6.60;99.90;;;;;;5050729;28;20060;-77
2022/12/21 02:32:48;;;;;;;45.90;13.35;;;6.50;99.90;;;;;;5049606;28;20041;-77
2022/12/21 02:35:29;;;;;;;42.75;13.05;;;6.50;99.90;;;;;;5033662;28;20049;-76
2022/12/21 02:38:22;;;;;;;40.08;12.98;;;6.50;99.90;;;;;;5033681;28;20052;-77
2022/12/21 02:41:15;;;;;;;45.13;12.48;;;7.80;99.90;;;;;;5045053;28;20057;-77
2022/12/21 02:44:14;;;;;;;42.03;13.82;;;6.40;99.90;;;;;;5047560;28;20041;-77
2022/12/21 02:47:04;;;;;;;30.63;13.02;;;6.40;99.90;;;;;;5027841;28;20041;-77
2022/12/21 02:50:02;;;;;;;137.55;14.52;;;6.40;99.90;;;;;;5049188;28;20072;-77
2022/12/21 02:52:34;;;;;;;94.00;12.63;;;6.30;99.90;;;;;;5015799;28;20056;-78
2022/12/21 02:55:01;;;;;;;75.82;13.25;;;6.30;99.90;;;;;;5033339;28;20094;-77
2022/12/21 02:57:35;;;;;;;31.33;9.55;;;6.30;99.90;;;;;;5082472;28;20049;-76
2022/12/21 03:00:04;;;;;;;69.05;11.40;;;6.20;99.90;;;;;;5076177;28;20432;-76
2022/12/21 03:03:47;;;;;;;50.30;10.85;;;6.10;99.90;;;;;;5040733;28;20044;-76
2022/12/21 03:06:21;;;;;;;73.00;11.63;;;6.10;99.90;;;;;;5049300;28;20048;-77
2022/12/21 03:08:56;;;;;;;59.03;11.80;;;6.10;99.90;;;;;;5061421;28;20049;-75
2022/12/21 03:11:35;;;;;;;60.03;11.70;;;6.10;99.90;;;;;;5051832;28;20080;-76
2022/12/21 03:14:11;;;;;;;87.45;12.68;;;7.70;99.90;;;;;;5032360;28;20044;-75
2022/12/21 03:16:57;;;;;;;59.13;11.80;;;6.00;99.90;;;;;;5031170;28;20041;-76
2022/12/21 03:19:38;;;;;;;55.42;14.35;;;6.00;99.90;;;;;;5048452;28;20469;-74
2022/12/21 03:22:24;;;;;;;51.45;11.82;;;6.10;99.90;;;;;;5045322;28;20053;-75
2022/12/21 03:24:59;;;;;;;94.82;15.65;;;6.00;99.90;;;;;;5025026;28;20495;-75
2022/12/21 03:27:32;;;;;;;41.45;14.13;;;7.50;99.90;;;;;;5048369;28;20037;-76
2022/12/21 03:30:06;;;;;;;159.00;18.42;;;6.00;99.90;;;;;;5079241;28;20046;-76
2022/12/21 03:32:40;;;;;;;40.83;13.40;;;6.00;99.90;;;;;;5047387;28;20049;-75
2022/12/21 03:35:10;;;;;;;;;;;6.00;99.90;;;;;;5048763;28;20037;-76
2022/12/21 03:37:39;;;;;;;44.08;12.13;;;6.00;99.90;;;;;;5049999;28;19928;-76
2022/12/21 03:40:13;;;;;;;41.70;13.68;;;6.10;99.90;;;;;;5047766;28;20083;-77
2022/12/21 03:42:46;;;;;;;51.83;13.48;;;6.10;99.90;;;;;;5049009;28;20512;-76
2022/12/21 03:45:17;;;;;;;37.30;11.65;;;6.10;99.90;;;;;;5030758;28;20091;-76
2022/12/21 03:47:51;;;;;;;57.22;10.88;;;6.10;99.90;;;;;;5040686;28;20072;-76
2022/12/21 03:50:21;;;;;;;33.80;11.13;;;7.10;99.90;;;;;;5031326;28;20135;-76
2022/12/21 03:52:56;;;;;;;38.13;11.48;;;6.10;99.90;;;;;;5047849;28;20543;-77
2022/12/21 03:55:28;;;;;;;79.60;12.55;;;6.00;99.90;;;;;;5047521;28;20052;-77
2022/12/21 03:57:56;;;;;;;36.40;11.25;;;6.00;99.90;;;;;;5031731;28;20693;-76
2022/12/21 04:00:22;;;;;;;25.58;10.50;;;6.10;99.90;;;;;;5047441;28;20041;-76
2022/12/21 04:03:08;;;;;;;93.80;14.73;;;6.00;99.90;;;;;;5048478;28;20501;-77
2022/12/21 04:05:43;;;;;;;94.57;14.95;;;6.00;99.90;;;;;;5048242;28;20401;-77
2022/12/21 04:08:09;;;;;;;46.50;12.20;;;7.20;99.90;;;;;;5046970;28;20966;-77
2022/12/21 04:10:35;;;;;;;166.30;17.40;;;7.30;99.90;;;;;;5048218;28;20040;-76
2022/12/21 04:13:01;;;;;;;95.50;16.08;;;5.90;99.90;;;;;;5030807;28;20497;-76
2022/12/21 04:18:13;;;;;;;102.38;14.73;;;5.90;99.90;;;;;;5057333;28;20114;-76
2022/12/21 04:20:38;;;;;;;55.83;12.10;;;5.90;99.90;;;;;;5047271;28;20044;-76
2022/12/21 04:28:33;;;;;;;59.05;10.70;;;5.90;99.90;;;;;;5048724;28;19975;-76
2022/12/21 04:31:00;;;;;;;55.83;11.50;;;6.00;99.90;;;;;;5041227;28;20083;-75
2022/12/21 04:33:28;;;;;;;62.60;12.82;;;5.90;99.90;;;;;;5047624;28;20036;-75
2022/12/21 04:38:41;;;;;;;44.67;10.80;;;5.90;99.90;;;;;;5048912;28;20086;-76
2022/12/21 04:41:07;;;;;;;127.13;14.50;;;5.90;99.90;;;;;;5081046;28;20055;-76
2022/12/21 04:43:37;;;;;;;97.40;12.93;;;6.90;99.90;;;;;;5048361;28;20044;-76
2022/12/21 04:46:06;;;;;;;147.52;16.13;;;5.90;99.90;;;;;;5047064;28;20072;-76
2022/12/21 04:48:32;;;;;;;107.18;14.52;;;7.20;99.90;;;;;;5080179;28;20325;-75
2022/12/21 04:51:07;;;;;;;53.83;12.32;;;5.80;99.90;;;;;;5047121;28;20417;-77
2022/12/21 04:53:33;;;;;;;57.45;12.70;;;5.80;99.90;;;;;;5051577;28;20123;-77
2022/12/21 04:55:59;;;;;;;55.10;12.68;;;5.80;99.90;;;;;;5046543;28;20091;-77
2022/12/21 04:58:25;;;;;;;72.28;14.15;;;7.70;99.90;;;;;;5047148;28;20032;-77
2022/12/21 05:00:51;;;;;;;109.88;15.02;;;5.90;99.90;;;;;;5030022;28;20043;-76
2022/12/21 05:03:19;;;;;;;55.28;13.10;;;5.90;99.90;;;;;;5046402;28;20045;-76
2022/12/21 05:05:45;;;;;;;61.83;13.23;;;5.90;99.90;;;;;;5046922;28;20121;-77
2022/12/21 05:08:10;;;;;;;39.50;11.77;;;5.40;99.90;;;;;;5046776;28;20222;-76
2022/12/21 05:10:36;;;;;;;31.25;12.32;;;5.90;99.90;;;;;;5046549;28;20032;-77
2022/12/21 05:13:02;;;;;;;52.03;12.60;;;5.90;99.90;;;;;;5047808;28;20063;-77
2022/12/21 05:15:28;;;;;;;158.73;18.02;;;5.90;99.90;;;;;;5030033;28;20590;-77
2022/12/21 05:17:53;;;;;;;34.83;12.18;;;5.90;99.90;;;;;;5047150;28;20075;-76
2022/12/21 05:20:20;;;;;;;69.65;13.98;;;5.90;99.90;;;;;;5044400;28;20037;-77
2022/12/21 05:22:46;;;;;;;51.65;13.63;;;5.90;99.90;;;;;;5051695;28;20427;-75
2022/12/21 05:25:12;;;;;;;42.40;12.60;;;5.90;99.90;;;;;;5025541;28;20045;-75
2022/12/21 05:27:37;;;;;;;48.78;12.18;;;5.90;99.90;;;;;;5047381;28;20045;-75
2022/12/21 05:30:04;;;;;;;29.90;11.93;;;7.70;99.90;;;;;;5043222;28;20133;-76
2022/12/21 05:32:30;;;;;;;37.45;12.90;;;5.90;99.90;;;;;;5044598;28;20048;-74
2022/12/21 05:34:55;;;;;;;38.63;11.38;;;5.90;99.90;;;;;;5030179;28;20033;-75
2022/12/21 05:37:22;;;;;;;34.70;12.00;;;5.90;99.90;;;;;;5048018;28;20052;-75
2022/12/21 05:39:47;;;;;;;29.35;11.73;;;5.80;99.90;;;;;;5046382;28;20088;-76
2022/12/21 05:42:13;;;;;;;30.27;12.70;;;7.10;99.90;;;;;;5046284;28;20080;-76
2022/12/21 05:44:39;;;;;;;51.58;12.82;;;5.90;99.90;;;;;;5046490;28;20048;-76
2022/12/21 05:47:05;;;;;;;54.00;11.68;;;5.90;99.90;;;;;;5046045;28;20049;-76
2022/12/21 05:49:30;;;;;;;51.40;13.13;;;5.90;99.90;;;;;;5030573;28;20049;-77
2022/12/21 05:51:56;;;;;;;98.35;14.88;;;7.20;99.90;;;;;;5045552;28;20144;-76
2022/12/21 05:54:22;;;;;;;37.30;12.73;;;5.80;99.90;;;;;;5030300;28;20048;-77
2022/12/21 05:56:47;;;;;;;34.30;11.57;;;5.80;99.90;;;;;;5080017;28;20099;-76
2022/12/21 05:59:13;;;;;;;52.67;12.43;;;6.40;99.90;;;;;;5046053;28;20319;-76
2022/12/21 06:01:39;;;;;;;36.65;11.77;;;5.80;99.90;;;;;;5030387;28;20187;-75
2022/12/21 06:04:05;;;;;;;30.05;12.65;;;5.80;99.90;;;;;;5046546;28;20068;-75
2022/12/21 06:06:30;;;;;;;26.50;11.25;;;7.10;99.90;;;;;;5046294;28;20487;-74
2022/12/21 06:08:56;;;;;;;42.33;13.15;;;7.20;99.90;;;;;;5047796;28;20052;-75
2022/12/21 06:11:26;;;;;;;43.28;12.68;;;5.70;99.90;;;;;;5048137;28;20033;-74
2022/12/21 06:13:53;;;;;;;40.63;12.70;;;5.70;99.90;;;;;;5045907;28;20051;-76
2022/12/21 06:16:21;;;;;;;41.53;13.63;;;6.10;99.90;;;;;;5047755;28;20084;-76
2022/12/21 06:18:48;;;;;;;38.63;12.80;;;6.90;99.90;;;;;;5034279;28;20099;-75
2022/12/21 06:21:15;;;;;;;39.13;14.70;;;6.90;99.90;;;;;;5033900;28;20130;-76
2022/12/21 06:23:42;;;;;;;42.33;12.70;;;5.70;99.90;;;;;;5056785;28;20133;-76
2022/12/21 06:26:14;;;;;;;36.88;13.45;;;7.20;99.90;;;;;;5051473;28;20033;-77
2022/12/21 06:28:40;;;;;;;37.53;13.88;;;6.40;99.90;;;;;;5037407;28;20132;-75
2022/12/21 06:31:12;;;;;;;64.43;15.68;;;5.70;99.90;;;;;;5057146;28;20060;-76
2022/12/21 06:33:38;;;;;;;39.25;15.00;;;5.80;99.90;;;;;;5050573;28;20036;-76
2022/12/21 06:36:06;;;;;;;36.72;14.93;;;5.70;99.90;;;;;;5054662;28;20044;-76
2022/12/21 06:38:32;;;;;;;51.65;13.93;;;5.70;99.90;;;;;;5030663;28;20037;-76
2022/12/21 06:41:03;;;;;;;53.83;14.18;;;5.70;99.90;;;;;;5034052;28;20037;-76
2022/12/21 06:43:31;;;;;;;79.38;41.47;;;6.20;99.90;;;;;;5054846;28;20103;-76
2022/12/21 06:46:02;;;;;;;58.05;15.82;;;5.60;99.90;;;;;;5050719;28;20501;-75
2022/12/21 06:48:32;;;;;;;56.03;14.75;;;7.40;99.90;;;;;;5057332;28;20041;-77
2022/12/21 06:50:59;;;;;;;61.85;15.18;;;5.70;99.90;;;;;;5053389;28;20138;-77
2022/12/21 06:53:29;;;;;;;50.28;14.57;;;5.70;99.90;;;;;;5055613;28;20638;-78
2022/12/21 06:55:59;;;;;;;42.88;14.48;;;5.90;99.90;;;;;;5050827;28;20041;-78
2022/12/21 06:58:25;;;;;;;48.28;15.20;;;5.70;99.90;;;;;;5048950;28;20041;-78
2022/12/21 07:00:51;;;;;;;48.20;14.85;;;5.60;99.90;;;;;;5058839;28;20063;-77
2022/12/21 07:03:17;;;;;;;53.45;14.60;;;7.10;99.90;;;;;;5034764;28;20046;-77
2022/12/21 07:05:42;;;;;;;50.90;14.73;;;6.10;99.90;;;;;;5051255;28;20378;-77
2022/12/21 07:08:08;;;;;;;79.50;16.25;;;5.60;99.90;;;;;;5038892;28;20499;-76
2022/12/21 07:10:36;;;;;;;70.20;14.80;;;7.40;99.90;;;;;;5034529;28;20037;-77
2022/12/21 07:13:02;;;;;;;53.17;14.77;;;5.70;99.90;;;;;;5053909;28;20610;-77
2022/12/21 07:15:28;;;;;;;88.65;15.25;;;6.40;99.90;;;;;;5035460;28;20036;-77
2022/12/21 07:17:53;;;;;;;65.38;17.67;;;7.00;99.90;;;;;;5044563;28;20080;-76
2022/12/21 07:20:19;;;;;;;49.70;15.07;;;6.30;99.90;;;;;;5040142;28;20532;-75
2022/12/21 07:22:45;;;;;;;42.22;16.05;;;6.70;99.90;;;;;;5037111;28;20045;-76
2022/12/21 07:25:10;;;;;;;53.42;17.38;;;5.60;99.90;;;;;;5044036;28;20060;-77
2022/12/21 07:27:36;;;;;;;71.43;19.30;;;5.60;99.90;;;;;;5036577;28;20439;-77
2022/12/21 07:30:01;;;;;;;36.83;16.48;;;5.60;99.90;;;;;;5041452;28;20045;-77
2022/12/21 07:32:27;;;;;;;47.60;18.38;;;5.60;99.90;;;;;;5047184;28;20095;-75
2022/12/21 07:34:53;;;;;;;44.35;17.17;;;6.00;99.90;;;;;;5049518;28;20045;-76
2022/12/21 07:37:18;;;;;;;55.40;18.02;;;5.60;99.90;;;;;;5048995;28;20112;-76
2022/12/21 07:39:44;;;;;;;49.97;18.67;;;5.50;99.90;;;;;;5049847;28;20041;-75
2022/12/21 07:42:09;;;;;;;37.42;18.50;;;5.60;99.90;;;;;;5048168;28;20392;-75
2022/12/21 07:44:35;;;;;;;50.95;19.08;;;5.60;99.90;;;;;;5048004;28;20036;-74
2022/12/21 07:47:00;;;;;;;43.13;18.65;;;5.70;99.90;;;;;;5049008;28;20647;-75
2022/12/21 07:49:26;;;;;;;43.25;18.08;;;5.70;99.90;;;;;;5049457;28;20043;-75
2022/12/21 07:51:52;;;;;;;57.08;20.27;;;5.70;99.90;;;;;;5047420;28;20088;-77
2022/12/21 07:54:17;;;;;;;38.45;18.27;;;5.70;99.90;;;;;;5049468;28;20117;-76
2022/12/21 07:56:43;;;;;;;41.10;21.45;;;5.60;99.90;;;;;;5048163;28;20039;-75
2022/12/21 07:59:09;;;;;;;42.35;20.25;;;5.70;99.90;;;;;;5047115;28;20037;-76
2022/12/21 08:01:35;;;;;;;41.30;19.52;;;5.70;99.90;;;;;;5065311;28;20033;-76
2022/12/21 08:04:00;;;;;;;45.92;21.15;;;5.70;99.90;;;;;;5030824;28;20049;-76
2022/12/21 08:06:26;;;;;;;45.10;21.65;;;6.50;99.90;;;;;;5047512;28;20044;-75
2022/12/21 08:08:52;;;;;;;41.45;21.58;;;5.70;99.90;;;;;;5031252;28;20044;-76
2022/12/21 08:11:19;;;;;;;48.40;21.55;;;5.80;99.90;;;;;;5047679;28;20120;-76
2022/12/21 08:13:46;;;;;;;50.00;21.40;;;7.10;99.90;;;;;;5048804;28;20327;-76
2022/12/21 08:16:14;;;;;;;47.28;23.20;;;5.80;99.90;;;;;;5053818;28;20033;-76
2022/12/21 08:18:40;;;;;;;52.45;21.65;;;7.10;99.90;;;;;;5041998;28;20480;-76
2022/12/21 08:21:06;;;;;;;50.47;21.75;;;5.80;99.90;;;;;;5048258;28;20037;-78
2022/12/21 08:23:32;;;;;;;62.40;20.75;;;7.70;99.90;;;;;;5032353;28;20048;-77
2022/12/21 08:26:03;;;;;;;49.55;20.58;;;5.80;99.90;;;;;;5053335;28;20045;-77
2022/12/21 08:28:30;;;;;;;65.70;23.02;;;5.80;99.90;;;;;;4684932;28;10000090;-78
2022/12/21 08:31:03;;;;;;;65.75;23.33;;;5.80;99.90;;;;;;5046832;28;20151;-79
2022/12/21 08:33:29;;;;;;;63.42;22.67;;;5.10;99.90;;;;;;5045233;28;20041;-78
2022/12/21 08:35:55;;;;;;;65.60;23.70;;;7.30;99.90;;;;;;5049527;28;20033;-79
2022/12/21 08:38:22;;;;;;;80.15;24.27;;;5.90;99.90;;;;;;5054649;28;20060;-79
2022/12/21 08:40:47;;;;;;;65.40;23.65;;;5.90;99.90;;;;;;5049321;28;20049;-77
2022/12/21 08:43:13;;;;;;;66.95;25.38;;;5.90;99.90;;;;;;5049803;28;20296;-76
2022/12/21 08:45:39;;;;;;;67.15;24.10;;;6.10;99.90;;;;;;5050129;28;20713;-79
2022/12/21 08:48:05;;;;;;;65.00;22.42;;;7.80;99.90;;;;;;5043417;28;20033;-76
2022/12/21 08:50:31;;;;;;;107.30;27.48;;;5.90;99.90;;;;;;5047354;28;20060;-77
2022/12/21 08:52:57;;;;;;;54.08;22.95;;;6.00;99.90;;;;;;5046726;28;20121;-78
2022/12/21 08:55:22;;;;;;;75.22;25.67;;;6.00;99.90;;;;;;5051702;28;20045;-77
2022/12/21 08:57:48;;;;;;;67.18;25.58;;;7.50;99.90;;;;;;5042903;28;20049;-80
2022/12/21 09:00:14;;;;;;;63.45;24.77;;;6.00;99.90;;;;;;5031761;28;20067;-77
2022/12/21 09:02:39;;;;;;;94.85;26.58;;;6.10;99.90;;;;;;5026167;28;20435;-78
2022/12/21 09:05:05;;;;;;;71.10;25.63;;;6.30;99.90;;;;;;5026430;28;20635;-78
2022/12/21 09:07:32;;;;;;;101.38;28.88;;;6.10;99.90;;;;;;5029076;28;20067;-78
2022/12/21 09:09:58;;;;;;;117.82;31.17;;;6.20;99.90;;;;;;5022060;28;20128;-78
2022/12/21 09:12:23;;;;;;;63.28;25.08;;;6.20;99.90;;;;;;5065357;28;20616;-78
2022/12/21 09:14:49;;;;;;;74.50;27.30;;;7.50;99.90;;;;;;5038647;28;20049;-78
2022/12/21 09:17:15;;;;;;;58.53;24.70;;;6.30;99.90;;;;;;5068245;28;20044;-78
2022/12/21 09:19:40;;;;;;;62.72;26.20;;;6.30;99.90;;;;;;5039947;28;20397;-76
2022/12/21 09:22:06;;;;;;;70.68;26.58;;;6.30;99.90;;;;;;5038512;28;20455;-76
2022/12/21 09:24:31;;;;;;;86.28;28.83;;;7.20;99.90;;;;;;5027403;28;20048;-78
2022/12/21 09:26:57;;;;;;;75.55;27.00;;;6.40;99.90;;;;;;5054108;28;20120;-78
2022/12/21 09:29:23;;;;;;;86.03;29.27;;;6.30;99.90;;;;;;5034218;28;20060;-78
2022/12/21 09:31:50;;;;;;;64.30;26.88;;;5.80;99.90;;;;;;5044037;28;20045;-78
2022/12/21 09:34:17;;;;;;;75.00;27.13;;;6.30;99.90;;;;;;5030386;28;20044;-78
2022/12/21 09:36:43;;;;;;;67.35;25.88;;;6.30;99.90;;;;;;5029541;28;20090;-79
2022/12/21 09:39:09;;;;;;;73.75;26.45;;;6.50;99.90;;;;;;5029884;28;20408;-78
2022/12/21 09:41:45;;;;;;;63.42;25.65;;;8.00;99.90;;;;;;5046930;28;20489;-78
2022/12/21 09:44:56;;;;;;;64.15;24.67;;;6.40;99.90;;;;;;5047043;28;20072;-77
2022/12/21 09:47:35;;;;;;;66.28;25.92;;;6.50;99.90;;;;;;5036641;28;20057;-77
2022/12/21 09:50:06;;;;;;;79.68;27.92;;;6.50;99.90;;;;;;5045802;28;20048;-76
2022/12/21 09:52:37;;;;;;;70.75;25.77;;;6.50;99.90;;;;;;5047892;28;20063;-77
2022/12/21 09:55:11;;;;;;;74.63;26.17;;;8.40;99.90;;;;;;5032949;28;20068;-78
2022/12/21 09:57:36;;;;;;;68.45;26.05;;;6.50;99.90;;;;;;5028044;28;20025;-78
2022/12/21 10:00:21;;;;;;;79.65;27.45;;;7.90;99.90;;;;;;5029475;28;20054;-80
2022/12/21 10:03:15;;;;;;;78.75;26.75;;;6.60;99.90;;;;;;5029741;28;20431;-77
2022/12/21 10:06:14;;;;;;;67.25;23.95;;;6.60;99.90;;;;;;5045383;28;20467;-76
2022/12/21 10:08:51;;;;;;;52.55;22.63;;;6.50;99.90;;;;;;5044749;28;20080;-76
2022/12/21 10:11:35;;;;;;;53.60;22.10;;;6.60;99.90;;;;;;5049767;28;20489;-76
2022/12/21 10:14:18;;;;;;;53.00;22.40;;;6.50;99.90;;;;;;5032393;28;20575;-76
2022/12/21 10:16:47;;;;;;;49.72;22.50;;;6.50;99.90;;;;;;5048164;28;20056;-75
2022/12/21 10:19:19;;;;;;;50.33;22.83;;;6.60;99.90;;;;;;5037506;28;20048;-76
2022/12/21 10:22:05;;;;;;;64.80;23.95;;;6.60;99.90;;;;;;5032134;28;20143;-76
2022/12/21 10:24:46;;;;;;;50.58;23.23;;;7.90;99.90;;;;;;5032253;28;20139;-76
2022/12/21 10:27:37;;;;;;;55.83;24.80;;;6.60;99.90;;;;;;5030660;28;20029;-77
2022/12/21 10:30:04;;;;;;;62.13;25.25;;;6.60;99.90;;;;;;5046446;28;20497;-77
2022/12/21 10:32:33;;;;;;;48.63;24.02;;;6.60;99.90;;;;;;5044920;28;20037;-77
2022/12/21 10:35:28;;;;;;;54.08;23.70;;;6.60;99.90;;;;;;5026601;28;20147;-79
2022/12/21 10:37:55;;;;;;;59.80;24.42;;;6.60;99.90;;;;;;5021881;28;20485;-78
2022/12/21 10:40:25;;;;;;;53.83;24.45;;;6.60;99.90;;;;;;5025989;28;20037;-76
2022/12/21 10:42:52;;;;;;;52.65;23.02;;;6.60;99.90;;;;;;5043597;28;20045;-78
2022/12/21 10:45:21;;;;;;;57.95;24.15;;;6.60;99.90;;;;;;5042772;28;20045;-77
2022/12/21 10:47:47;;;;;;;56.80;23.75;;;5.50;99.90;;;;;;5032718;28;20131;-78
2022/12/21 10:50:31;;;;;;;48.65;23.92;;;6.50;99.90;;;;;;5047686;28;20041;-75
2022/12/21 10:52:58;;;;;;;52.47;24.40;;;6.50;99.90;;;;;;5046742;28;20052;-77
2022/12/21 10:55:32;;;;;;;52.13;23.98;;;8.10;99.90;;;;;;5046533;28;20755;-76
2022/12/21 10:58:04;;;;;;;63.88;26.30;;;6.60;99.90;;;;;;5049461;28;20055;-76
2022/12/21 11:00:35;;;;;;;59.83;25.52;;;5.90;99.90;;;;;;5048802;28;20041;-78
2022/12/21 11:03:31;;;;;;;55.00;24.58;;;6.50;99.90;;;;;;5049649;28;20041;-76
2022/12/21 11:05:57;;;;;;;57.92;25.08;;;6.60;99.90;;;;;;5041169;28;20057;-76
2022/12/21 11:08:31;;;;;;;50.00;22.15;;;6.60;99.90;;;;;;5047007;28;20156;-76
2022/12/21 11:11:00;;;;;;;52.05;22.98;;;6.70;99.90;;;;;;5043632;28;20040;-78
2022/12/21 11:13:32;;;;;;;51.70;21.92;;;7.40;99.90;;;;;;5057306;28;20075;-77
2022/12/21 11:16:10;;;;;;;50.05;22.27;;;6.70;99.90;;;;;;5052583;28;20045;-79
2022/12/21 11:18:38;;;;;;;52.15;22.67;;;6.70;99.90;;;;;;5054023;28;20059;-78
2022/12/21 11:21:22;;;;;;;53.25;22.02;;;6.80;99.90;;;;;;5056149;28;20047;-79
2022/12/21 11:24:03;;;;;;;56.88;24.05;;;7.30;99.90;;;;;;5032414;28;20080;-79
2022/12/21 11:26:35;;;;;;;55.15;22.10;;;6.90;99.90;;;;;;5034110;28;20048;-80
2022/12/21 11:29:05;;;;;;;59.92;22.63;;;6.90;99.90;;;;;;5052511;28;20048;-77
2022/12/21 11:31:31;;;;;;;59.67;21.83;;;7.00;99.90;;;;;;5049750;28;20116;-79
2022/12/21 11:33:57;;;;;;;56.53;23.52;;;7.00;99.90;;;;;;5055966;28;20534;-77
2022/12/21 11:36:23;;;;;;;53.60;22.55;;;7.00;99.90;;;;;;5059850;28;20034;-81
2022/12/21 11:38:49;;;;;;;54.05;21.98;;;8.30;99.90;;;;;;5060439;28;20049;-78
2022/12/21 11:41:20;;;;;;;53.08;21.60;;;7.10;99.90;;;;;;5055745;28;20071;-78
2022/12/21 11:43:48;;;;;;;54.45;20.88;;;7.10;99.90;;;;;;5045192;28;20057;-79
2022/12/21 11:46:35;;;;;;;53.05;20.70;;;7.10;99.90;;;;;;5044010;28;20124;-79
2022/12/21 11:49:26;;;;;;;50.08;20.10;;;7.20;99.90;;;;;;5042503;28;20045;-80
2022/12/21 11:52:01;;;;;;;56.42;21.13;;;7.20;99.90;;;;;;5032756;28;20053;-80
2022/12/21 11:54:39;;;;;;;60.50;21.33;;;7.30;99.90;;;;;;5048736;28;20048;-80
2022/12/21 11:57:30;;;;;;;41.30;17.00;;;7.30;99.90;;;;;;5038964;28;20056;-79
2022/12/21 12:00:14;;;;;;;46.85;19.27;;;7.40;99.90;;;;;;5036754;28;20038;-78
2022/12/21 12:03:11;;;;;;;47.45;20.45;;;7.40;99.90;;;;;;5031404;28;20053;-76
2022/12/21 12:05:49;;;;;;;44.97;18.23;;;7.40;99.90;;;;;;5040438;28;20091;-79
2022/12/21 12:08:51;;;;;;;41.47;17.42;;;7.50;99.90;;;;;;5037616;28;20402;-77
2022/12/21 12:11:20;;;;;;;47.05;18.70;;;7.50;99.90;;;;;;5029198;28;20053;-79
2022/12/21 12:14:07;;;;;;;35.08;15.55;;;8.50;99.90;;;;;;5037976;28;20041;-78
2022/12/21 12:16:36;;;;;;;37.95;17.40;;;6.60;99.90;;;;;;5024647;28;20105;-78
2022/12/21 12:19:01;;;;;;;42.60;15.85;;;8.90;99.90;;;;;;5047208;28;20040;-75
2022/12/21 12:21:55;;;;;;;38.60;17.67;;;9.30;99.90;;;;;;5049960;28;20082;-75
2022/12/21 12:24:34;;;;;;;43.53;16.80;;;7.60;99.90;;;;;;5020837;28;20040;-78
2022/12/21 12:27:22;;;;;;;40.67;17.45;;;7.60;99.90;;;;;;5047425;28;20170;-75
2022/12/21 12:29:51;;;;;;;41.05;16.77;;;7.60;99.90;;;;;;5042655;28;20061;-78
2022/12/21 12:32:38;;;;;;;43.13;17.67;;;7.60;99.90;;;;;;5047738;28;20106;-78
2022/12/21 12:35:17;;;;;;;41.42;17.85;;;7.60;99.90;;;;;;5046806;28;20140;-79
2022/12/21 12:38:15;;;;;;;43.13;18.33;;;7.70;99.90;;;;;;5056637;28;20491;-77
2022/12/21 12:41:02;;;;;;;37.95;15.55;;;7.70;99.90;;;;;;5078270;28;20041;-77
2022/12/21 12:43:38;;;;;;;36.25;16.48;;;7.70;99.90;;;;;;5045881;28;20119;-77
2022/12/21 12:46:16;;;;;;;47.70;19.55;;;7.70;99.90;;;;;;5029517;28;20048;-76
2022/12/21 12:48:44;;;;;;;39.08;16.23;;;7.70;99.90;;;;;;5073355;28;20142;-76
2022/12/21 12:51:30;;;;;;;41.85;17.08;;;7.80;99.90;;;;;;5045460;28;20051;-79
2022/12/21 12:54:20;;;;;;;44.17;16.98;;;7.80;99.90;;;;;;5075872;28;20540;-78
2022/12/21 12:57:02;;;;;;;40.35;16.90;;;7.90;99.90;;;;;;5041478;28;20044;-78
2022/12/21 12:59:44;;;;;;;35.08;17.50;;;7.90;99.90;;;;;;5062592;28;20099;-77
2022/12/21 13:02:21;;;;;;;37.65;16.65;;;7.90;99.90;;;;;;5025970;28;20048;-77
2022/12/21 13:05:01;;;;;;;34.42;17.55;;;7.80;99.90;;;;;;5025849;28;20029;-76
2022/12/21 13:07:46;;;;;;;35.05;16.25;;;8.00;99.90;;;;;;5046253;28;20132;-76
2022/12/21 13:10:49;;;;;;;35.67;16.85;;;8.00;99.90;;;;;;5030241;28;20252;-76